Time;durP1;ratioP1;P1;durP2;ratioP2;P2;SDS_P1;SDS_P2;PMS_P1;PMS_P2;Temp;Humidity;BMP_temperature;BMP_pressure;BME280_temperature;BME280_humidity;BME280_pressure;Samples;Min_cycle;Max_cycle;Signal;HPM_P1;HPM_P2
2022/09/14 00:00:01;;;;;;;1.30;1.10;;;;;;;;;;5053150;28;20099;-47
2022/09/14 00:02:26;;;;;;;4.97;1.60;;;;;;;;;;5051972;28;20036;-46
2022/09/14 00:04:53;;;;;;;2.65;1.35;;;;;;;;;;5049272;28;20041;-45
2022/09/14 00:07:18;;;;;;;6.10;1.80;;;;;;;;;;5050818;28;20037;-46
2022/09/14 00:09:44;;;;;;;6.13;1.52;;;;;;;;;;5054447;28;20135;-47
2022/09/14 00:12:09;;;;;;;3.50;1.38;;;;;;;;;;5054064;28;20386;-51
2022/09/14 00:14:36;;;;;;;1.88;1.33;;;;;;;;;;5050571;28;20032;-45
2022/09/14 00:17:01;;;;;;;8.25;1.48;;;;;;;;;;5059602;28;20042;-45
2022/09/14 00:19:27;;;;;;;3.35;1.50;;;;;;;;;;5053400;28;20117;-48
2022/09/14 00:21:57;;;;;;;4.35;1.25;;;;;;;;;;5053017;28;20452;-46
2022/09/14 00:24:25;;;;;;;8.45;1.67;;;;;;;;;;5043020;28;20060;-46
2022/09/14 00:26:50;;;;;;;3.42;1.30;;;;;;;;;;5042957;28;20095;-44
2022/09/14 00:29:17;;;;;;;2.10;1.25;;;;;;;;;;5054355;28;20507;-49
2022/09/14 00:31:42;;;;;;;6.47;1.63;;;;;;;;;;5042110;28;20498;-45
2022/09/14 00:34:12;;;;;;;2.50;1.52;;;;;;;;;;5044744;28;20095;-45
2022/09/14 00:36:41;;;;;;;2.92;1.25;;;;;;;;;;5043977;28;20409;-47
2022/09/14 00:39:08;;;;;;;7.70;2.35;;;;;;;;;;5045174;28;20068;-47
2022/09/14 00:41:36;;;;;;;1.80;1.50;;;;;;;;;;5053594;28;20112;-45
2022/09/14 00:44:05;;;;;;;3.08;1.38;;;;;;;;;;5052771;28;20199;-46
2022/09/14 00:46:36;;;;;;;1.63;1.20;;;;;;;;;;5048876;28;20049;-47
2022/09/14 00:49:05;;;;;;;2.15;1.40;;;;;;;;;;5057723;28;20442;-46
2022/09/14 00:51:32;;;;;;;2.47;1.60;;;;;;;;;;5051156;28;20052;-49
2022/09/14 00:54:01;;;;;;;5.18;1.70;;;;;;;;;;5044630;28;20518;-44
2022/09/14 00:56:27;;;;;;;2.78;1.67;;;;;;;;;;5045831;28;20036;-46
2022/09/14 00:58:54;;;;;;;2.88;1.30;;;;;;;;;;5040880;28;20401;-45
2022/09/14 01:01:20;;;;;;;4.13;1.20;;;;;;;;;;5049924;28;20044;-46
2022/09/14 01:03:45;;;;;;;3.88;1.45;;;;;;;;;;5041319;28;20030;-47
2022/09/14 01:06:35;;;;;;;5.13;1.95;;;;;;;;;;5042751;28;20033;-44
2022/09/14 01:09:29;;;;;;;2.58;1.50;;;;;;;;;;5044900;28;20048;-46
2022/09/14 01:12:06;;;;;;;2.65;1.50;;;;;;;;;;5050101;28;20041;-47
2022/09/14 01:14:45;;;;;;;3.90;1.33;;;;;;;;;;5041109;28;20040;-46
2022/09/14 01:17:25;;;;;;;5.55;1.60;;;;;;;;;;5043556;28;20044;-46
2022/09/14 01:20:24;;;;;;;2.53;1.40;;;;;;;;;;5041763;28;20053;-48
2022/09/14 01:23:12;;;;;;;3.08;1.40;;;;;;;;;;5041767;28;20065;-46
2022/09/14 01:25:44;;;;;;;3.90;1.20;;;;;;;;;;5044528;28;20128;-45
2022/09/14 01:28:19;;;;;;;7.15;2.00;;;;;;;;;;5043843;28;20063;-47
2022/09/14 01:30:48;;;;;;;3.00;1.70;;;;;;;;;;5042046;28;20045;-44
2022/09/14 01:33:32;;;;;;;6.30;1.70;;;;;;;;;;5043209;28;20045;-47
2022/09/14 01:36:00;;;;;;;2.72;1.40;;;;;;;;;;5038787;28;20040;-49
2022/09/14 01:38:37;;;;;;;5.47;1.48;;;;;;;;;;5045359;28;20037;-45
2022/09/14 01:41:07;;;;;;;3.80;1.60;;;;;;;;;;5043640;28;20044;-47
2022/09/14 01:43:39;;;;;;;1.65;1.30;;;;;;;;;;5044357;28;20037;-47
2022/09/14 01:46:13;;;;;;;2.35;1.25;;;;;;;;;;5043050;28;20047;-50
2022/09/14 01:48:51;;;;;;;3.03;1.50;;;;;;;;;;5043748;28;20132;-48
2022/09/14 01:51:22;;;;;;;2.63;1.52;;;;;;;;;;5041815;28;20402;-48
2022/09/14 01:54:15;;;;;;;3.33;1.40;;;;;;;;;;5037627;28;20127;-49
2022/09/14 01:56:54;;;;;;;3.92;1.52;;;;;;;;;;5041315;28;20048;-50
2022/09/14 01:59:26;;;;;;;2.38;1.30;;;;;;;;;;5042597;28;20175;-45
2022/09/14 02:02:00;;;;;;;1.40;1.30;;;;;;;;;;5040637;28;20132;-49
2022/09/14 02:04:35;;;;;;;2.67;1.40;;;;;;;;;;5059060;28;20497;-47
2022/09/14 02:07:01;;;;;;;1.58;1.30;;;;;;;;;;5046005;28;20064;-48
2022/09/14 02:09:27;;;;;;;3.97;1.63;;;;;;;;;;5051551;28;20562;-47
2022/09/14 02:11:59;;;;;;;4.68;1.70;;;;;;;;;;5046482;28;20045;-46
2022/09/14 02:14:25;;;;;;;2.72;1.35;;;;;;;;;;5052390;28;20506;-44
2022/09/14 02:16:51;;;;;;;7.07;1.63;;;;;;;;;;5045683;28;20037;-46
2022/09/14 02:19:17;;;;;;;2.55;1.17;;;;;;;;;;5055246;28;20139;-44
2022/09/14 02:21:43;;;;;;;2.65;1.38;;;;;;;;;;5044011;28;20037;-47
2022/09/14 02:24:09;;;;;;;1.92;1.30;;;;;;;;;;5050275;28;20494;-44
2022/09/14 02:26:36;;;;;;;2.60;1.23;;;;;;;;;;5045508;28;20033;-48
2022/09/14 02:29:03;;;;;;;5.20;1.70;;;;;;;;;;5044553;28;20075;-46
2022/09/14 02:31:43;;;;;;;6.00;1.40;;;;;;;;;;5047222;28;20214;-49
2022/09/14 02:34:37;;;;;;;4.22;1.58;;;;;;;;;;5044587;28;20417;-48
2022/09/14 02:37:18;;;;;;;1.55;1.27;;;;;;;;;;5046289;28;20431;-47
2022/09/14 02:39:59;;;;;;;1.93;1.27;;;;;;;;;;5043464;28;20041;-47
2022/09/14 02:42:35;;;;;;;1.33;1.10;;;;;;;;;;5052745;28;20556;-46
2022/09/14 02:45:29;;;;;;;2.10;1.20;;;;;;;;;;5061722;28;20457;-44
2022/09/14 02:48:21;;;;;;;5.68;1.85;;;;;;;;;;5055024;28;20037;-49
2022/09/14 02:50:56;;;;;;;3.67;1.20;;;;;;;;;;5064038;28;20409;-44
2022/09/14 02:53:35;;;;;;;2.95;1.48;;;;;;;;;;5050470;28;20397;-48
2022/09/14 02:56:06;;;;;;;1.90;1.02;;;;;;;;;;5065863;28;20500;-43
2022/09/14 02:58:35;;;;;;;2.35;1.02;;;;;;;;;;5050537;28;20083;-45
2022/09/14 03:01:00;;;;;;;4.40;1.42;;;;;;;;;;5049600;28;20041;-45
2022/09/14 03:03:26;;;;;;;2.45;1.20;;;;;;;;;;5060838;28;20090;-50
2022/09/14 03:05:54;;;;;;;5.68;1.52;;;;;;;;;;5055305;28;20374;-49
2022/09/14 03:08:20;;;;;;;5.00;1.67;;;;;;;;;;5053410;28;20049;-48
2022/09/14 03:10:45;;;;;;;2.33;1.30;;;;;;;;;;5054329;28;20572;-44
2022/09/14 03:13:11;;;;;;;2.95;1.80;;;;;;;;;;5057882;28;20036;-44
2022/09/14 03:15:37;;;;;;;2.38;1.13;;;;;;;;;;5056719;28;20750;-45
2022/09/14 03:18:02;;;;;;;4.57;1.40;;;;;;;;;;5052830;28;20044;-47
2022/09/14 03:20:31;;;;;;;2.38;1.25;;;;;;;;;;5055820;28;20451;-46
2022/09/14 03:23:01;;;;;;;3.35;1.60;;;;;;;;;;5053340;28;20069;-46
2022/09/14 03:25:27;;;;;;;1.60;1.50;;;;;;;;;;5051557;28;20048;-45
2022/09/14 03:27:56;;;;;;;3.28;1.40;;;;;;;;;;5053285;28;20405;-44
2022/09/14 03:30:21;;;;;;;6.38;1.50;;;;;;;;;;5049952;28;20105;-48
2022/09/14 03:32:47;;;;;;;3.28;1.35;;;;;;;;;;5049414;28;20040;-46
2022/09/14 03:35:14;;;;;;;2.33;1.20;;;;;;;;;;5059457;28;20413;-47
2022/09/14 03:37:42;;;;;;;2.83;1.20;;;;;;;;;;5045172;28;20036;-44
2022/09/14 03:40:09;;;;;;;1.60;1.00;;;;;;;;;;5045921;28;20048;-44
2022/09/14 03:42:35;;;;;;;3.13;1.55;;;;;;;;;;5053037;28;20646;-46
2022/09/14 03:45:01;;;;;;;1.60;1.25;;;;;;;;;;5060620;28;20075;-47
2022/09/14 03:47:27;;;;;;;3.50;1.38;;;;;;;;;;5050241;28;20068;-44
2022/09/14 03:49:53;;;;;;;2.53;1.50;;;;;;;;;;5054692;28;20071;-44
2022/09/14 03:52:19;;;;;;;3.53;1.38;;;;;;;;;;5043266;28;20072;-44
2022/09/14 03:54:44;;;;;;;2.85;1.27;;;;;;;;;;5045996;28;20052;-46
2022/09/14 03:57:10;;;;;;;3.28;1.25;;;;;;;;;;5047310;28;20090;-47
2022/09/14 03:59:36;;;;;;;4.60;1.23;;;;;;;;;;5043259;28;20041;-44
2022/09/14 04:02:02;;;;;;;3.45;1.20;;;;;;;;;;5046006;28;20398;-46
2022/09/14 04:04:28;;;;;;;3.90;1.50;;;;;;;;;;5050484;28;20040;-44
2022/09/14 04:06:53;;;;;;;4.55;1.02;;;;;;;;;;5063417;28;20033;-46
2022/09/14 04:09:19;;;;;;;4.70;1.50;;;;;;;;;;5056243;28;20040;-48
2022/09/14 04:11:45;;;;;;;4.63;1.52;;;;;;;;;;5055103;28;20087;-45
2022/09/14 04:14:11;;;;;;;5.05;1.73;;;;;;;;;;5055763;28;20049;-46
2022/09/14 04:16:38;;;;;;;2.17;1.27;;;;;;;;;;5049575;28;20044;-44
2022/09/14 04:19:05;;;;;;;2.40;1.20;;;;;;;;;;5060474;28;20044;-45
2022/09/14 04:21:30;;;;;;;7.10;1.23;;;;;;;;;;5042614;28;20040;-47
2022/09/14 04:23:56;;;;;;;3.00;1.13;;;;;;;;;;5054878;28;20048;-47
2022/09/14 04:26:25;;;;;;;2.00;1.20;;;;;;;;;;5065700;28;20052;-52
2022/09/14 04:28:51;;;;;;;1.60;1.33;;;;;;;;;;5056839;28;20151;-49
2022/09/14 04:31:16;;;;;;;2.88;1.20;;;;;;;;;;5057085;28;20123;-50
2022/09/14 04:33:43;;;;;;;1.73;1.52;;;;;;;;;;5046250;28;20068;-50
2022/09/14 04:36:14;;;;;;;3.60;1.30;;;;;;;;;;5060324;28;20123;-46
2022/09/14 04:38:41;;;;;;;7.82;1.50;;;;;;;;;;5051009;28;20059;-46
2022/09/14 04:41:12;;;;;;;3.65;1.30;;;;;;;;;;5044174;28;20051;-45
2022/09/14 04:43:38;;;;;;;5.32;1.50;;;;;;;;;;5038517;28;20025;-48
2022/09/14 04:46:07;;;;;;;1.58;1.33;;;;;;;;;;5044121;28;20493;-50
2022/09/14 04:48:34;;;;;;;4.22;1.33;;;;;;;;;;5044711;28;20038;-48
2022/09/14 04:51:05;;;;;;;5.28;1.70;;;;;;;;;;5054172;28;20033;-47
2022/09/14 04:53:32;;;;;;;3.80;1.50;;;;;;;;;;5051277;28;20041;-45
2022/09/14 04:56:00;;;;;;;2.03;1.25;;;;;;;;;;5050574;28;20037;-47
2022/09/14 04:58:27;;;;;;;4.63;1.50;;;;;;;;;;5051432;28;20044;-47
2022/09/14 05:00:54;;;;;;;3.03;1.60;;;;;;;;;;5054556;28;20090;-44
2022/09/14 05:03:20;;;;;;;2.30;1.50;;;;;;;;;;5057678;28;20040;-48
2022/09/14 05:05:47;;;;;;;3.58;1.58;;;;;;;;;;5051072;28;20041;-46
2022/09/14 05:08:12;;;;;;;3.92;1.70;;;;;;;;;;5048815;28;20051;-46
2022/09/14 05:10:38;;;;;;;9.57;2.03;;;;;;;;;;5046928;28;20036;-44
2022/09/14 05:13:03;;;;;;;2.03;1.48;;;;;;;;;;5054032;28;20532;-46
2022/09/14 05:15:29;;;;;;;4.22;1.60;;;;;;;;;;5046160;28;20036;-46
2022/09/14 05:17:55;;;;;;;5.07;1.80;;;;;;;;;;5039862;28;20044;-45
2022/09/14 05:20:20;;;;;;;4.45;1.80;;;;;;;;;;5042072;28;20040;-45
2022/09/14 05:22:49;;;;;;;1.75;1.45;;;;;;;;;;5039501;28;20041;-45
2022/09/14 05:25:15;;;;;;;11.10;2.60;;;;;;;;;;5037270;28;20067;-43
2022/09/14 05:27:41;;;;;;;5.88;2.50;;;;;;;;;;5040177;28;20156;-46
2022/09/14 05:30:07;;;;;;;7.15;2.53;;;;;;;;;;5047050;28;20065;-47
2022/09/14 05:32:33;;;;;;;8.75;2.35;;;;;;;;;;5048997;28;20057;-44
2022/09/14 05:34:58;;;;;;;6.90;2.72;;;;;;;;;;5046622;28;20510;-47
2022/09/14 05:37:24;;;;;;;12.75;2.30;;;;;;;;;;5054886;28;20057;-46
2022/09/14 05:39:49;;;;;;;8.73;2.40;;;;;;;;;;5058276;28;20041;-45
2022/09/14 05:42:15;;;;;;;8.85;2.45;;;;;;;;;;5040583;28;20086;-47
2022/09/14 05:44:40;;;;;;;8.20;2.55;;;;;;;;;;5054371;28;20040;-47
2022/09/14 05:47:06;;;;;;;5.53;2.70;;;;;;;;;;5053860;28;20063;-44
2022/09/14 05:49:32;;;;;;;3.80;2.30;;;;;;;;;;5045455;28;20498;-45
2022/09/14 05:51:57;;;;;;;3.65;2.20;;;;;;;;;;5049750;28;20049;-46
2022/09/14 05:54:23;;;;;;;6.68;2.30;;;;;;;;;;5039479;28;20037;-48
2022/09/14 05:56:48;;;;;;;3.60;2.08;;;;;;;;;;5050389;28;20061;-45
2022/09/14 05:59:14;;;;;;;3.55;2.03;;;;;;;;;;5060093;28;20086;-47
2022/09/14 06:01:40;;;;;;;7.90;1.95;;;;;;;;;;5046622;28;20037;-45
2022/09/14 06:04:05;;;;;;;2.40;1.70;;;;;;;;;;5057936;28;20036;-45
2022/09/14 06:06:32;;;;;;;2.83;1.67;;;;;;;;;;5050214;28;20499;-45
2022/09/14 06:08:58;;;;;;;4.00;1.73;;;;;;;;;;5057003;28;20453;-46
2022/09/14 06:11:27;;;;;;;4.97;1.95;;;;;;;;;;5049362;28;20517;-46
2022/09/14 06:13:54;;;;;;;5.13;2.22;;;;;;;;;;5062566;28;20067;-47
2022/09/14 06:16:21;;;;;;;7.88;2.28;;;;;;;;;;5050753;28;20051;-45
2022/09/14 06:18:47;;;;;;;2.50;1.60;;;;;;;;;;5055252;28;20052;-47
2022/09/14 06:21:17;;;;;;;6.28;1.77;;;;;;;;;;5060240;28;20039;-44
2022/09/14 06:23:44;;;;;;;4.95;2.20;;;;;;;;;;5048353;28;20044;-45
2022/09/14 06:26:10;;;;;;;2.35;1.80;;;;;;;;;;5057749;28;20041;-47
2022/09/14 06:28:35;;;;;;;8.48;2.10;;;;;;;;;;5050366;28;20052;-45
2022/09/14 06:31:03;;;;;;;2.85;1.80;;;;;;;;;;5052121;28;20045;-45
2022/09/14 06:33:30;;;;;;;3.83;2.00;;;;;;;;;;5061936;28;20068;-46
2022/09/14 06:36:08;;;;;;;5.70;1.85;;;;;;;;;;5045110;28;20128;-46
2022/09/14 06:38:34;;;;;;;1.75;1.60;;;;;;;;;;5046990;28;20045;-45
2022/09/14 06:41:03;;;;;;;4.22;1.75;;;;;;;;;;5056487;28;20738;-45
2022/09/14 06:43:34;;;;;;;4.57;1.80;;;;;;;;;;5058190;28;20032;-45
2022/09/14 06:46:06;;;;;;;4.20;1.75;;;;;;;;;;5043196;28;20701;-48
2022/09/14 06:48:35;;;;;;;5.68;1.70;;;;;;;;;;5053223;28;20052;-45
2022/09/14 06:51:11;;;;;;;2.72;1.58;;;;;;;;;;5056394;28;20853;-46
2022/09/14 06:53:36;;;;;;;4.88;1.35;;;;;;;;;;5053319;28;20071;-41
2022/09/14 06:56:02;;;;;;;2.95;2.25;;;;;;;;;;5054389;28;20041;-46
2022/09/14 06:58:27;;;;;;;5.07;1.40;;;;;;;;;;5052455;28;20047;-45
2022/09/14 07:00:53;;;;;;;1.83;1.60;;;;;;;;;;5051976;28;20040;-47
2022/09/14 07:03:18;;;;;;;2.72;1.80;;;;;;;;;;5050611;28;20585;-45
2022/09/14 07:05:44;;;;;;;2.03;1.65;;;;;;;;;;5049667;28;20677;-46
2022/09/14 07:08:10;;;;;;;2.20;1.30;;;;;;;;;;5055112;28;20374;-46
2022/09/14 07:10:35;;;;;;;1.92;1.70;;;;;;;;;;5047572;28;20047;-48
2022/09/14 07:13:01;;;;;;;2.50;1.38;;;;;;;;;;5056219;28;20049;-46
2022/09/14 07:15:26;;;;;;;1.95;1.30;;;;;;;;;;5053948;28;20393;-46
2022/09/14 07:17:52;;;;;;;6.82;1.50;;;;;;;;;;5053099;28;20047;-49
2022/09/14 07:20:18;;;;;;;6.43;1.50;;;;;;;;;;5049586;28;20032;-47
2022/09/14 07:22:44;;;;;;;2.03;1.30;;;;;;;;;;5055140;28;20210;-45
2022/09/14 07:25:10;;;;;;;4.88;1.88;;;;;;;;;;5061114;28;20085;-47
2022/09/14 07:27:38;;;;;;;1.70;1.60;;;;;;;;;;5052528;28;20056;-46
2022/09/14 07:30:06;;;;;;;1.55;1.45;;;;;;;;;;5049864;28;20166;-46
2022/09/14 07:32:32;;;;;;;5.22;1.50;;;;;;;;;;5049611;28;20135;-47
2022/09/14 07:34:57;;;;;;;3.95;1.50;;;;;;;;;;5051482;28;20240;-46
2022/09/14 07:37:23;;;;;;;1.83;1.35;;;;;;;;;;5053833;28;20040;-49
2022/09/14 07:39:49;;;;;;;1.75;1.35;;;;;;;;;;5052937;28;20041;-46
2022/09/14 07:42:14;;;;;;;2.35;1.50;;;;;;;;;;5051428;28;20114;-50
2022/09/14 07:44:40;;;;;;;4.95;1.60;;;;;;;;;;5057976;28;20032;-45
2022/09/14 07:47:05;;;;;;;4.32;1.30;;;;;;;;;;5052841;28;20044;-46
2022/09/14 07:49:31;;;;;;;3.83;1.40;;;;;;;;;;5043460;28;20152;-46
2022/09/14 07:51:56;;;;;;;3.45;1.20;;;;;;;;;;5049362;28;20124;-46
2022/09/14 07:54:22;;;;;;;5.38;1.80;;;;;;;;;;5055043;28;20690;-50
2022/09/14 07:56:49;;;;;;;1.88;1.35;;;;;;;;;;5053104;28;20405;-47
2022/09/14 07:59:15;;;;;;;3.10;1.25;;;;;;;;;;5050216;28;20045;-48
2022/09/14 08:01:40;;;;;;;3.10;1.27;;;;;;;;;;5053498;28;20490;-46
2022/09/14 08:04:08;;;;;;;4.35;2.10;;;;;;;;;;5049870;28;20033;-47
2022/09/14 08:06:36;;;;;;;2.75;1.30;;;;;;;;;;5062173;28;20579;-47
2022/09/14 08:09:06;;;;;;;3.15;1.40;;;;;;;;;;5054875;28;20036;-46
2022/09/14 08:11:34;;;;;;;2.38;1.40;;;;;;;;;;5048401;28;20482;-46
2022/09/14 08:14:02;;;;;;;3.55;1.80;;;;;;;;;;5049868;28;20036;-47
2022/09/14 08:16:30;;;;;;;3.38;1.15;;;;;;;;;;5053316;28;20041;-46
2022/09/14 08:18:58;;;;;;;3.72;1.38;;;;;;;;;;5051843;28;20079;-45
2022/09/14 08:21:25;;;;;;;3.33;1.60;;;;;;;;;;5055201;28;20064;-46
2022/09/14 08:23:51;;;;;;;2.58;1.45;;;;;;;;;;5042740;28;20045;-47
2022/09/14 08:26:22;;;;;;;2.95;1.60;;;;;;;;;;5054975;28;20500;-46
2022/09/14 08:28:49;;;;;;;4.72;1.70;;;;;;;;;;5048574;28;20047;-47
2022/09/14 08:31:17;;;;;;;4.22;1.67;;;;;;;;;;5053508;28;20044;-46
2022/09/14 08:33:45;;;;;;;6.18;2.03;;;;;;;;;;5054009;28;20051;-46
2022/09/14 08:36:13;;;;;;;8.75;1.77;;;;;;;;;;5053868;28;20060;-45
2022/09/14 08:38:39;;;;;;;2.30;1.70;;;;;;;;;;5044032;28;20121;-47
2022/09/14 08:41:18;;;;;;;3.63;1.52;;;;;;;;;;5050485;28;20053;-47
2022/09/14 08:43:44;;;;;;;5.68;1.73;;;;;;;;;;5048265;28;20049;-47
2022/09/14 08:46:21;;;;;;;9.68;1.63;;;;;;;;;;5053979;28;20045;-46
2022/09/14 08:48:48;;;;;;;5.25;1.75;;;;;;;;;;5044387;28;20049;-49
2022/09/14 08:51:14;;;;;;;7.63;2.00;;;;;;;;;;5055639;28;20071;-47
2022/09/14 08:53:41;;;;;;;4.13;1.73;;;;;;;;;;5053814;28;20128;-46
2022/09/14 08:56:19;;;;;;;7.95;2.15;;;;;;;;;;5043081;28;20049;-45
2022/09/14 08:59:08;;;;;;;5.47;2.50;;;;;;;;;;5059982;28;20568;-46
2022/09/14 09:01:46;;;;;;;6.50;1.63;;;;;;;;;;5049765;28;20068;-48
2022/09/14 09:04:16;;;;;;;7.28;2.35;;;;;;;;;;5054101;28;20045;-49
2022/09/14 09:07:16;;;;;;;3.97;1.67;;;;;;;;;;5046307;28;20064;-44
2022/09/14 09:09:51;;;;;;;7.93;1.70;;;;;;;;;;5050626;28;20037;-49
2022/09/14 09:12:35;;;;;;;7.25;1.67;;;;;;;;;;5043591;28;20055;-46
2022/09/14 09:15:14;;;;;;;4.22;1.67;;;;;;;;;;5040383;28;20041;-48
2022/09/14 09:17:45;;;;;;;4.57;1.75;;;;;;;;;;5051797;28;20034;-46
2022/09/14 09:20:19;;;;;;;9.82;1.92;;;;;;;;;;5047425;28;20037;-46
2022/09/14 09:23:01;;;;;;;9.38;2.58;;;;;;;;;;5052682;28;20048;-46
2022/09/14 09:25:33;;;;;;;9.10;2.28;;;;;;;;;;5052645;28;20049;-49
2022/09/14 09:28:08;;;;;;;;;;;;;;;;;;5046334;28;20659;-46
2022/09/14 09:30:33;;;;;;;5.90;2.10;;;;;;;;;;5048509;28;19967;-46
2022/09/14 09:32:59;;;;;;;4.55;2.13;;;;;;;;;;5057858;28;20775;-46
2022/09/14 09:35:25;;;;;;;6.03;2.20;;;;;;;;;;5052123;28;20113;-46
2022/09/14 09:37:50;;;;;;;11.55;3.08;;;;;;;;;;5063306;28;20041;-48
2022/09/14 09:40:19;;;;;;;15.43;3.30;;;;;;;;;;5052879;28;20069;-46
2022/09/14 09:43:06;;;;;;;17.38;3.80;;;;;;;;;;5056758;28;20521;-46
2022/09/14 09:45:50;;;;;;;14.98;3.28;;;;;;;;;;5047229;28;20405;-46
2022/09/14 09:48:18;;;;;;;17.98;3.92;;;;;;;;;;5045446;28;20090;-48
2022/09/14 09:51:05;;;;;;;21.63;3.75;;;;;;;;;;5043963;28;20094;-47
2022/09/14 09:53:35;;;;;;;15.15;3.50;;;;;;;;;;5044142;28;20082;-46
2022/09/14 09:56:01;;;;;;;19.92;3.83;;;;;;;;;;5046961;28;20037;-46
2022/09/14 09:58:34;;;;;;;15.35;3.35;;;;;;;;;;5044969;28;20073;-50
2022/09/14 10:01:01;;;;;;;12.25;3.40;;;;;;;;;;5043040;28;20041;-46
2022/09/14 10:03:34;;;;;;;21.42;3.78;;;;;;;;;;5053867;28;20432;-50
2022/09/14 10:06:03;;;;;;;15.52;3.78;;;;;;;;;;5056744;28;20057;-47
2022/09/14 10:08:33;;;;;;;14.70;2.58;;;;;;;;;;5057182;28;20040;-47
2022/09/14 10:11:03;;;;;;;24.73;2.97;;;;;;;;;;5055312;28;20037;-50
2022/09/14 10:13:33;;;;;;;20.90;4.38;;;;;;;;;;5051102;28;20045;-49
2022/09/14 10:16:16;;;;;;;18.20;4.18;;;;;;;;;;5057316;28;20037;-51
2022/09/14 10:18:47;;;;;;;17.80;4.00;;;;;;;;;;5050445;28;20523;-49
2022/09/14 10:21:16;;;;;;;17.70;3.47;;;;;;;;;;5057408;28;20044;-47
2022/09/14 10:23:41;;;;;;;15.30;4.13;;;;;;;;;;5048373;28;20099;-48
2022/09/14 10:26:13;;;;;;;20.30;4.55;;;;;;;;;;5051567;28;20502;-46
2022/09/14 10:28:42;;;;;;;12.27;2.92;;;;;;;;;;5062565;28;20061;-48
2022/09/14 10:31:10;;;;;;;14.93;4.07;;;;;;;;;;5050992;28;20036;-46
2022/09/14 10:33:36;;;;;;;19.10;4.05;;;;;;;;;;5056762;28;20450;-47
2022/09/14 10:36:28;;;;;;;14.27;3.17;;;;;;;;;;5055799;28;20060;-48
2022/09/14 10:39:34;;;;;;;24.90;3.63;;;;;;;;;;5051707;28;20519;-47
2022/09/14 10:42:15;;;;;;;17.42;3.40;;;;;;;;;;5046520;28;20089;-47
2022/09/14 10:44:59;;;;;;;13.75;3.28;;;;;;;;;;5048322;28;20048;-46
2022/09/14 10:47:43;;;;;;;21.30;4.00;;;;;;;;;;5051136;28;20517;-48
2022/09/14 10:50:27;;;;;;;16.90;3.13;;;;;;;;;;5046205;28;20053;-47
2022/09/14 10:53:18;;;;;;;13.60;3.03;;;;;;;;;;5046272;28;20474;-48
2022/09/14 10:56:18;;;;;;;13.15;2.90;;;;;;;;;;5046581;28;20037;-50
2022/09/14 10:59:14;;;;;;;11.15;2.72;;;;;;;;;;5053105;28;20048;-48
2022/09/14 11:02:01;;;;;;;14.30;3.35;;;;;;;;;;5022717;28;20519;-47
2022/09/14 11:04:26;;;;;;;15.80;3.67;;;;;;;;;;5024419;28;20057;-47
2022/09/14 11:07:08;;;;;;;12.63;2.75;;;;;;;;;;5023788;28;20050;-46
2022/09/14 11:09:40;;;;;;;;;;;;;;;;;;5023453;28;20084;-51
2022/09/14 11:12:06;;;;;;;12.25;3.50;;;;;;;;;;5025995;28;19921;-50
2022/09/14 11:15:04;;;;;;;10.38;3.30;;;;;;;;;;5024589;28;20180;-49
2022/09/14 11:18:01;;;;;;;10.93;2.95;;;;;;;;;;5018705;28;20044;-47
2022/09/14 11:20:54;;;;;;;11.90;2.85;;;;;;;;;;5019030;28;20124;-50
2022/09/14 11:23:34;;;;;;;7.05;2.45;;;;;;;;;;5025414;28;20099;-52
2022/09/14 11:26:06;;;;;;;8.27;2.42;;;;;;;;;;5021629;28;20600;-49
2022/09/14 11:28:40;;;;;;;9.18;2.55;;;;;;;;;;5025009;28;20045;-46
2022/09/14 11:31:05;;;;;;;11.98;2.40;;;;;;;;;;5022320;28;20076;-47
2022/09/14 11:33:46;;;;;;;10.23;3.05;;;;;;;;;;5024442;28;20041;-50
2022/09/14 11:36:20;;;;;;;13.53;2.40;;;;;;;;;;5023516;28;20494;-51
2022/09/14 11:38:55;;;;;;;7.43;2.55;;;;;;;;;;5046142;28;20051;-51
2022/09/14 11:41:20;;;;;;;6.53;2.47;;;;;;;;;;5050758;28;20060;-47
2022/09/14 11:43:56;;;;;;;12.15;2.50;;;;;;;;;;5053635;28;20037;-51
2022/09/14 11:46:43;;;;;;;12.40;2.40;;;;;;;;;;5047670;28;20456;-48
2022/09/14 11:49:26;;;;;;;11.32;2.95;;;;;;;;;;5046428;28;20037;-52
2022/09/14 11:52:01;;;;;;;11.60;3.05;;;;;;;;;;5052010;28;20405;-49
2022/09/14 11:54:27;;;;;;;14.10;3.00;;;;;;;;;;5055478;28;20481;-47
2022/09/14 11:56:58;;;;;;;13.45;2.83;;;;;;;;;;5053491;28;20056;-46
2022/09/14 11:59:34;;;;;;;13.07;3.13;;;;;;;;;;5048165;28;20067;-47
2022/09/14 12:02:39;;;;;;;13.45;3.10;;;;;;;;;;5043346;28;20041;-51
2022/09/14 12:05:09;;;;;;;9.38;2.85;;;;;;;;;;5055897;28;20405;-50
2022/09/14 12:07:48;;;;;;;11.35;3.08;;;;;;;;;;5041072;28;20514;-51
2022/09/14 12:10:14;;;;;;;14.05;3.08;;;;;;;;;;5043567;28;20425;-49
2022/09/14 12:12:41;;;;;;;13.13;2.58;;;;;;;;;;5036543;28;20041;-48
2022/09/14 12:15:29;;;;;;;14.40;3.45;;;;;;;;;;5048504;28;20041;-48
2022/09/14 12:18:04;;;;;;;12.73;3.22;;;;;;;;;;5048849;28;20044;-48
2022/09/14 12:20:49;;;;;;;16.10;3.70;;;;;;;;;;5055861;28;20049;-47
2022/09/14 12:23:36;;;;;;;17.80;4.28;;;;;;;;;;5059260;28;20041;-51
2022/09/14 12:26:05;;;;;;;18.40;3.95;;;;;;;;;;5055256;28;20047;-50
2022/09/14 12:28:33;;;;;;;17.40;3.38;;;;;;;;;;5046221;28;20038;-48
2022/09/14 12:30:59;;;;;;;18.27;3.78;;;;;;;;;;5052849;28;20037;-47
2022/09/14 12:33:31;;;;;;;27.15;4.05;;;;;;;;;;5043422;28;20048;-49
2022/09/14 12:35:57;;;;;;;;;;;;;;;;;;5055408;28;20407;-52
2022/09/14 12:38:28;;;;;;;14.20;3.78;;;;;;;;;;5055825;28;19928;-47
2022/09/14 12:40:57;;;;;;;13.52;3.78;;;;;;;;;;5050771;28;20045;-52
2022/09/14 12:43:32;;;;;;;11.32;3.75;;;;;;;;;;5052064;28;20045;-52
2022/09/14 12:46:21;;;;;;;17.48;3.58;;;;;;;;;;5050909;28;20140;-48
2022/09/14 12:48:51;;;;;;;13.70;2.72;;;;;;;;;;5049069;28;20041;-51
2022/09/14 12:51:32;;;;;;;10.65;3.00;;;;;;;;;;5051682;28;20041;-49
2022/09/14 12:54:07;;;;;;;12.32;3.33;;;;;;;;;;5050831;28;20041;-49
2022/09/14 12:56:55;;;;;;;10.85;3.28;;;;;;;;;;5049078;28;20041;-47
2022/09/14 12:59:55;;;;;;;16.60;3.22;;;;;;;;;;5047970;28;20033;-46
2022/09/14 13:02:52;;;;;;;14.43;3.35;;;;;;;;;;5043904;28;20103;-50
2022/09/14 13:05:27;;;;;;;12.45;3.35;;;;;;;;;;5047725;28;20041;-50
2022/09/14 13:07:53;;;;;;;22.58;3.28;;;;;;;;;;5049076;28;20044;-48
2022/09/14 13:10:33;;;;;;;9.57;3.10;;;;;;;;;;5049305;28;20033;-46
2022/09/14 13:13:03;;;;;;;16.27;2.97;;;;;;;;;;5049980;28;20114;-47
2022/09/14 13:15:32;;;;;;;15.25;3.00;;;;;;;;;;5051853;28;20120;-47
2022/09/14 13:18:27;;;;;;;18.05;3.72;;;;;;;;;;5062188;28;20040;-50
2022/09/14 13:21:22;;;;;;;17.63;3.45;;;;;;;;;;5057425;28;20032;-46
2022/09/14 13:23:48;;;;;;;9.00;2.78;;;;;;;;;;5049760;28;20040;-49
2022/09/14 13:26:24;;;;;;;8.20;2.95;;;;;;;;;;5048444;28;20186;-51
2022/09/14 13:28:52;;;;;;;10.77;2.97;;;;;;;;;;5041835;28;21134;-52
2022/09/14 13:31:29;;;;;;;13.70;3.28;;;;;;;;;;5056351;28;20562;-49
2022/09/14 13:33:56;;;;;;;14.55;3.60;;;;;;;;;;5050942;28;20079;-50
2022/09/14 13:36:24;;;;;;;15.02;3.53;;;;;;;;;;5044877;28;20051;-46
2022/09/14 13:38:50;;;;;;;19.60;3.35;;;;;;;;;;5040632;28;20103;-50
2022/09/14 13:41:18;;;;;;;14.18;3.90;;;;;;;;;;5046993;28;20397;-48
2022/09/14 13:43:46;;;;;;;19.25;3.78;;;;;;;;;;5046615;28;20045;-47
2022/09/14 13:46:13;;;;;;;13.65;3.15;;;;;;;;;;5058178;28;20033;-47
2022/09/14 13:48:40;;;;;;;12.15;3.83;;;;;;;;;;5042692;28;21142;-45
2022/09/14 13:51:07;;;;;;;12.00;3.17;;;;;;;;;;5042236;28;20064;-53
2022/09/14 13:53:48;;;;;;;13.00;3.08;;;;;;;;;;5041817;28;20041;-46
2022/09/14 13:56:29;;;;;;;10.82;2.80;;;;;;;;;;5042009;28;20040;-46
2022/09/14 13:59:07;;;;;;;;;;;;;;;;;;5049821;28;20055;-49
2022/09/14 14:01:45;;;;;;;13.60;3.20;;;;;;;;;;5050986;28;19920;-48
2022/09/14 14:04:36;;;;;;;13.50;3.08;;;;;;;;;;5049392;28;20029;-47
2022/09/14 14:07:07;;;;;;;18.13;3.80;;;;;;;;;;5058529;28;20095;-47
2022/09/14 14:09:41;;;;;;;9.80;3.00;;;;;;;;;;5051237;28;20049;-50
2022/09/14 14:12:08;;;;;;;11.38;3.80;;;;;;;;;;5039409;28;20052;-49
2022/09/14 14:14:34;;;;;;;16.30;4.10;;;;;;;;;;5041453;28;20877;-50
2022/09/14 14:17:12;;;;;;;12.93;2.80;;;;;;;;;;5058607;28;20124;-47
2022/09/14 14:19:42;;;;;;;11.77;3.15;;;;;;;;;;5052079;28;20040;-47
2022/09/14 14:22:17;;;;;;;16.15;3.63;;;;;;;;;;5051524;28;20049;-48
2022/09/14 14:24:45;;;;;;;9.13;2.88;;;;;;;;;;5052735;28;20156;-48
2022/09/14 14:27:30;;;;;;;12.85;3.08;;;;;;;;;;5055821;28;20044;-54
2022/09/14 14:29:56;;;;;;;12.90;3.10;;;;;;;;;;5044676;28;20124;-46
2022/09/14 14:32:22;;;;;;;15.32;3.20;;;;;;;;;;5045745;28;20049;-48
2022/09/14 14:34:48;;;;;;;10.73;2.63;;;;;;;;;;5046280;28;20053;-50
2022/09/14 14:37:14;;;;;;;11.70;3.10;;;;;;;;;;5049508;28;20064;-52
2022/09/14 14:39:39;;;;;;;13.02;3.30;;;;;;;;;;5057611;28;20126;-47
2022/09/14 14:42:06;;;;;;;19.13;3.13;;;;;;;;;;5054917;28;20190;-47
2022/09/14 14:44:33;;;;;;;9.75;3.00;;;;;;;;;;5052108;28;20438;-51
2022/09/14 14:46:59;;;;;;;12.48;3.35;;;;;;;;;;5044586;28;20044;-49
2022/09/14 14:49:25;;;;;;;12.73;3.17;;;;;;;;;;5050248;28;20391;-47
2022/09/14 14:51:52;;;;;;;15.98;3.50;;;;;;;;;;5061759;28;20036;-46
2022/09/14 14:54:17;;;;;;;10.15;2.70;;;;;;;;;;5046883;28;20070;-49
2022/09/14 14:56:48;;;;;;;12.15;3.55;;;;;;;;;;5052393;28;20429;-46
2022/09/14 14:59:20;;;;;;;15.77;3.42;;;;;;;;;;5049312;28;20070;-47
2022/09/14 15:01:50;;;;;;;;;;;;;;;;;;5051833;28;20044;-47
2022/09/14 15:04:15;;;;;;;15.73;3.40;;;;;;;;;;5051241;28;19929;-48